Terminal Aerodrome Forecast
Issued by NWS Buffalo, NY

Home | Current Version | Previous Version | Text Only | Print | Product List | Glossary On
Versions: 1 2 3 4 5 6 7 8 9 10 11 12 13 14 15 16 17 18 19 20 21 22 23 24
000
FTUS41 KBUF 270547
TAFART
TAF
KART 270547Z 2706/2806 00000KT 4SM BR SCT250
     FM270930 00000KT 2SM BR SCT250
     FM271200 21006KT P6SM SCT250
     FM271600 23010KT P6SM FEW045 SCT250
     FM271900 24010G18KT P6SM FEW050 SCT250
     FM272200 23008KT P6SM FEW050
     FM280100 00000KT P6SM FEW250=

USA.gov is the U.S. government's official web portal to all federal, state and local government web resources and services.